Los Angeles, Argentina
Current Conditions -  °F | °C
As of 11:00 AM on Thursday 30 Oct 2014 (Local Time) from SADF Reporting Station
Broken Clouds Broken Clouds  
Wind Chill: 21°   Ceiling: 20000
Heat Index: 21°   Visibility: 6mi
Dew Point: 15°   Wind: 2mph
Humidity: 68%   Direction: 250°WSW
Pressure: 29.85"   Gusts: NA
Location:  34.37°S, 60.22°W
Report Text: SADF 301400Z 25002KT 110V320 9999 SCT030TCU BKN200 21/15 Q1011
Loading
Personal Weather Stations






























Interactive Weather Map
Tropical Storm Tracking
New forecast layout! Learn more

10-Day Weather Forecast

Advertisements
Track Severe Weather on mobile